sensor_id;sensor_type;location;lat;lon;timestamp;P1;durP1;ratioP1;P2;durP2;ratioP2
62463;SDS011;48512;48.552;9.380;2023-04-07T00:02:09;17.73;;;7.93;;
62463;SDS011;48512;48.552;9.380;2023-04-07T00:04:36;17.50;;;7.95;;
62463;SDS011;48512;48.552;9.380;2023-04-07T00:07:02;17.40;;;8.45;;
62463;SDS011;48512;48.552;9.380;2023-04-07T00:09:28;15.48;;;7.95;;
62463;SDS011;48512;48.552;9.380;2023-04-07T00:11:54;17.35;;;7.55;;
62463;SDS011;48512;48.552;9.380;2023-04-07T00:14:20;16.83;;;8.15;;
62463;SDS011;48512;48.552;9.380;2023-04-07T00:16:47;20.65;;;8.00;;
62463;SDS011;48512;48.552;9.380;2023-04-07T00:19:13;19.45;;;7.85;;
62463;SDS011;48512;48.552;9.380;2023-04-07T00:21:39;15.98;;;7.78;;
62463;SDS011;48512;48.552;9.380;2023-04-07T00:24:05;17.38;;;8.27;;
62463;SDS011;48512;48.552;9.380;2023-04-07T00:26:32;15.18;;;7.78;;
62463;SDS011;48512;48.552;9.380;2023-04-07T00:28:58;16.25;;;8.48;;
62463;SDS011;48512;48.552;9.380;2023-04-07T00:31:25;18.85;;;8.50;;
62463;SDS011;48512;48.552;9.380;2023-04-07T00:33:51;19.90;;;8.88;;
62463;SDS011;48512;48.552;9.380;2023-04-07T00:36:17;18.90;;;8.68;;
62463;SDS011;48512;48.552;9.380;2023-04-07T00:38:43;16.20;;;8.73;;
62463;SDS011;48512;48.552;9.380;2023-04-07T00:41:09;19.70;;;8.77;;
62463;SDS011;48512;48.552;9.380;2023-04-07T00:43:36;19.13;;;8.95;;
62463;SDS011;48512;48.552;9.380;2023-04-07T00:46:02;18.52;;;8.65;;
62463;SDS011;48512;48.552;9.380;2023-04-07T00:48:28;16.15;;;7.90;;
62463;SDS011;48512;48.552;9.380;2023-04-07T00:50:55;18.10;;;8.48;;
62463;SDS011;48512;48.552;9.380;2023-04-07T00:53:22;18.90;;;8.88;;
62463;SDS011;48512;48.552;9.380;2023-04-07T00:55:48;18.27;;;9.13;;
62463;SDS011;48512;48.552;9.380;2023-04-07T00:58:14;18.63;;;8.35;;
62463;SDS011;48512;48.552;9.380;2023-04-07T01:00:44;20.50;;;9.18;;
62463;SDS011;48512;48.552;9.380;2023-04-07T01:03:19;19.33;;;8.63;;
62463;SDS011;48512;48.552;9.380;2023-04-07T01:05:59;18.38;;;9.10;;
62463;SDS011;48512;48.552;9.380;2023-04-07T01:11:45;17.70;;;8.80;;
62463;SDS011;48512;48.552;9.380;2023-04-07T01:14:19;19.63;;;9.30;;
62463;SDS011;48512;48.552;9.380;2023-04-07T01:16:54;17.67;;;8.75;;
62463;SDS011;48512;48.552;9.380;2023-04-07T01:19:32;18.75;;;9.57;;
62463;SDS011;48512;48.552;9.380;2023-04-07T01:22:02;20.33;;;9.27;;
62463;SDS011;48512;48.552;9.380;2023-04-07T01:24:41;18.92;;;9.02;;
62463;SDS011;48512;48.552;9.380;2023-04-07T01:29:52;17.17;;;8.85;;
62463;SDS011;48512;48.552;9.380;2023-04-07T01:32:19;20.35;;;8.98;;
62463;SDS011;48512;48.552;9.380;2023-04-07T01:34:48;21.67;;;9.07;;
62463;SDS011;48512;48.552;9.380;2023-04-07T01:37:17;18.33;;;9.30;;
62463;SDS011;48512;48.552;9.380;2023-04-07T01:39:43;20.02;;;9.45;;
62463;SDS011;48512;48.552;9.380;2023-04-07T01:42:10;19.48;;;9.68;;
62463;SDS011;48512;48.552;9.380;2023-04-07T01:44:38;21.23;;;9.23;;
62463;SDS011;48512;48.552;9.380;2023-04-07T01:47:05;20.90;;;9.32;;
62463;SDS011;48512;48.552;9.380;2023-04-07T01:49:32;17.70;;;9.10;;
62463;SDS011;48512;48.552;9.380;2023-04-07T01:51:59;17.17;;;8.98;;
62463;SDS011;48512;48.552;9.380;2023-04-07T01:54:26;19.02;;;9.48;;
62463;SDS011;48512;48.552;9.380;2023-04-07T01:56:53;18.67;;;9.13;;
62463;SDS011;48512;48.552;9.380;2023-04-07T01:59:20;20.08;;;10.20;;
62463;SDS011;48512;48.552;9.380;2023-04-07T02:01:46;17.95;;;9.18;;
62463;SDS011;48512;48.552;9.380;2023-04-07T02:04:34;15.13;;;8.35;;
62463;SDS011;48512;48.552;9.380;2023-04-07T02:07:12;18.25;;;8.80;;
62463;SDS011;48512;48.552;9.380;2023-04-07T02:09:47;15.55;;;8.57;;
62463;SDS011;48512;48.552;9.380;2023-04-07T02:12:16;16.90;;;8.95;;
62463;SDS011;48512;48.552;9.380;2023-04-07T02:14:57;18.75;;;9.13;;
62463;SDS011;48512;48.552;9.380;2023-04-07T02:17:23;17.40;;;9.45;;
62463;SDS011;48512;48.552;9.380;2023-04-07T02:19:52;18.33;;;8.63;;
62463;SDS011;48512;48.552;9.380;2023-04-07T02:22:22;15.88;;;8.52;;
62463;SDS011;48512;48.552;9.380;2023-04-07T02:24:50;19.77;;;9.63;;
62463;SDS011;48512;48.552;9.380;2023-04-07T02:27:16;16.08;;;8.77;;
62463;SDS011;48512;48.552;9.380;2023-04-07T02:29:42;15.02;;;8.52;;
62463;SDS011;48512;48.552;9.380;2023-04-07T02:32:08;15.13;;;8.25;;
62463;SDS011;48512;48.552;9.380;2023-04-07T02:34:34;17.48;;;9.27;;
62463;SDS011;48512;48.552;9.380;2023-04-07T02:37:01;15.35;;;8.30;;
62463;SDS011;48512;48.552;9.380;2023-04-07T02:39:27;17.15;;;9.20;;
62463;SDS011;48512;48.552;9.380;2023-04-07T02:41:53;13.52;;;8.45;;
62463;SDS011;48512;48.552;9.380;2023-04-07T02:44:19;13.77;;;7.97;;
62463;SDS011;48512;48.552;9.380;2023-04-07T02:46:45;19.45;;;8.98;;
62463;SDS011;48512;48.552;9.380;2023-04-07T02:49:11;16.27;;;8.68;;
62463;SDS011;48512;48.552;9.380;2023-04-07T02:51:37;16.65;;;8.38;;
62463;SDS011;48512;48.552;9.380;2023-04-07T02:54:04;16.85;;;8.85;;
62463;SDS011;48512;48.552;9.380;2023-04-07T02:56:30;15.27;;;8.15;;
62463;SDS011;48512;48.552;9.380;2023-04-07T02:58:57;14.05;;;7.53;;
62463;SDS011;48512;48.552;9.380;2023-04-07T03:01:23;15.35;;;8.68;;
62463;SDS011;48512;48.552;9.380;2023-04-07T03:03:50;14.07;;;9.02;;
62463;SDS011;48512;48.552;9.380;2023-04-07T03:06:22;15.30;;;7.80;;
62463;SDS011;48512;48.552;9.380;2023-04-07T03:09:06;14.38;;;7.75;;
62463;SDS011;48512;48.552;9.380;2023-04-07T03:11:32;17.05;;;8.45;;
62463;SDS011;48512;48.552;9.380;2023-04-07T03:13:59;15.40;;;8.57;;
62463;SDS011;48512;48.552;9.380;2023-04-07T03:16:27;15.43;;;8.25;;
62463;SDS011;48512;48.552;9.380;2023-04-07T03:19:08;15.60;;;8.35;;
62463;SDS011;48512;48.552;9.380;2023-04-07T03:21:38;14.18;;;8.75;;
62463;SDS011;48512;48.552;9.380;2023-04-07T03:24:05;13.90;;;8.60;;
62463;SDS011;48512;48.552;9.380;2023-04-07T03:26:32;15.88;;;8.85;;
62463;SDS011;48512;48.552;9.380;2023-04-07T03:28:59;15.27;;;8.25;;
62463;SDS011;48512;48.552;9.380;2023-04-07T03:31:26;13.77;;;8.27;;
62463;SDS011;48512;48.552;9.380;2023-04-07T03:33:54;13.52;;;7.88;;
62463;SDS011;48512;48.552;9.380;2023-04-07T03:36:21;13.85;;;8.13;;
62463;SDS011;48512;48.552;9.380;2023-04-07T03:38:47;18.70;;;8.68;;
62463;SDS011;48512;48.552;9.380;2023-04-07T03:41:15;13.77;;;7.72;;
62463;SDS011;48512;48.552;9.380;2023-04-07T03:43:42;14.23;;;8.07;;
62463;SDS011;48512;48.552;9.380;2023-04-07T03:46:09;15.20;;;8.32;;
62463;SDS011;48512;48.552;9.380;2023-04-07T03:48:35;18.38;;;10.40;;
62463;SDS011;48512;48.552;9.380;2023-04-07T03:51:07;21.15;;;10.27;;
62463;SDS011;48512;48.552;9.380;2023-04-07T03:53:33;19.55;;;9.70;;
62463;SDS011;48512;48.552;9.380;2023-04-07T03:56:09;18.55;;;9.35;;
62463;SDS011;48512;48.552;9.380;2023-04-07T03:58:45;17.25;;;9.40;;
62463;SDS011;48512;48.552;9.380;2023-04-07T04:01:17;20.05;;;9.40;;
62463;SDS011;48512;48.552;9.380;2023-04-07T04:03:45;15.98;;;8.93;;
62463;SDS011;48512;48.552;9.380;2023-04-07T04:06:26;17.17;;;8.93;;
62463;SDS011;48512;48.552;9.380;2023-04-07T04:08:57;16.65;;;8.77;;
62463;SDS011;48512;48.552;9.380;2023-04-07T04:11:25;17.15;;;8.73;;
62463;SDS011;48512;48.552;9.380;2023-04-07T04:13:58;17.50;;;8.38;;
62463;SDS011;48512;48.552;9.380;2023-04-07T04:16:24;16.45;;;9.13;;
62463;SDS011;48512;48.552;9.380;2023-04-07T04:18:52;17.73;;;9.32;;
62463;SDS011;48512;48.552;9.380;2023-04-07T04:21:19;15.40;;;8.45;;
62463;SDS011;48512;48.552;9.380;2023-04-07T04:23:47;17.98;;;9.23;;
62463;SDS011;48512;48.552;9.380;2023-04-07T04:26:14;15.68;;;8.40;;
62463;SDS011;48512;48.552;9.380;2023-04-07T04:28:43;18.17;;;9.38;;
62463;SDS011;48512;48.552;9.380;2023-04-07T04:31:09;15.77;;;8.45;;
62463;SDS011;48512;48.552;9.380;2023-04-07T04:33:42;17.55;;;8.63;;
62463;SDS011;48512;48.552;9.380;2023-04-07T04:36:08;15.10;;;8.60;;
62463;SDS011;48512;48.552;9.380;2023-04-07T04:38:35;14.55;;;8.93;;
62463;SDS011;48512;48.552;9.380;2023-04-07T04:41:20;14.90;;;7.97;;
62463;SDS011;48512;48.552;9.380;2023-04-07T04:43:48;16.98;;;9.40;;
62463;SDS011;48512;48.552;9.380;2023-04-07T04:46:19;16.92;;;8.75;;
62463;SDS011;48512;48.552;9.380;2023-04-07T04:48:47;17.58;;;9.70;;
62463;SDS011;48512;48.552;9.380;2023-04-07T04:51:16;17.73;;;9.05;;
62463;SDS011;48512;48.552;9.380;2023-04-07T04:53:45;17.50;;;9.17;;
62463;SDS011;48512;48.552;9.380;2023-04-07T04:56:11;17.23;;;8.80;;
62463;SDS011;48512;48.552;9.380;2023-04-07T04:58:44;15.80;;;8.13;;
62463;SDS011;48512;48.552;9.380;2023-04-07T05:01:35;15.30;;;8.02;;
62463;SDS011;48512;48.552;9.380;2023-04-07T05:04:06;15.60;;;8.50;;
62463;SDS011;48512;48.552;9.380;2023-04-07T05:06:34;17.52;;;8.65;;
62463;SDS011;48512;48.552;9.380;2023-04-07T05:09:06;16.02;;;9.15;;
62463;SDS011;48512;48.552;9.380;2023-04-07T05:11:40;19.15;;;8.63;;
62463;SDS011;48512;48.552;9.380;2023-04-07T05:14:06;19.00;;;9.65;;
62463;SDS011;48512;48.552;9.380;2023-04-07T05:16:33;21.33;;;9.40;;
62463;SDS011;48512;48.552;9.380;2023-04-07T05:19:00;21.48;;;10.18;;
62463;SDS011;48512;48.552;9.380;2023-04-07T05:21:27;20.25;;;9.98;;
62463;SDS011;48512;48.552;9.380;2023-04-07T05:23:57;24.75;;;11.02;;
62463;SDS011;48512;48.552;9.380;2023-04-07T05:26:23;22.45;;;10.20;;
62463;SDS011;48512;48.552;9.380;2023-04-07T05:28:50;22.23;;;10.18;;
62463;SDS011;48512;48.552;9.380;2023-04-07T05:31:20;18.13;;;9.18;;
62463;SDS011;48512;48.552;9.380;2023-04-07T05:33:49;19.30;;;9.73;;
62463;SDS011;48512;48.552;9.380;2023-04-07T05:36:15;19.83;;;9.75;;
62463;SDS011;48512;48.552;9.380;2023-04-07T05:38:42;22.90;;;10.50;;
62463;SDS011;48512;48.552;9.380;2023-04-07T05:41:12;24.90;;;11.18;;
62463;SDS011;48512;48.552;9.380;2023-04-07T05:43:38;25.15;;;11.25;;
62463;SDS011;48512;48.552;9.380;2023-04-07T05:46:05;22.88;;;11.20;;
62463;SDS011;48512;48.552;9.380;2023-04-07T05:48:35;26.92;;;11.50;;
62463;SDS011;48512;48.552;9.380;2023-04-07T05:51:02;26.13;;;11.65;;
62463;SDS011;48512;48.552;9.380;2023-04-07T05:53:29;28.98;;;12.35;;
62463;SDS011;48512;48.552;9.380;2023-04-07T05:55:56;29.55;;;13.48;;
62463;SDS011;48512;48.552;9.380;2023-04-07T05:58:40;29.92;;;12.32;;
62463;SDS011;48512;48.552;9.380;2023-04-07T06:01:07;25.10;;;11.60;;
62463;SDS011;48512;48.552;9.380;2023-04-07T06:03:33;29.58;;;13.70;;
62463;SDS011;48512;48.552;9.380;2023-04-07T06:06:09;34.80;;;14.70;;
62463;SDS011;48512;48.552;9.380;2023-04-07T06:08:35;28.92;;;12.13;;
62463;SDS011;48512;48.552;9.380;2023-04-07T06:11:02;31.02;;;12.82;;
62463;SDS011;48512;48.552;9.380;2023-04-07T06:13:28;29.83;;;12.68;;
62463;SDS011;48512;48.552;9.380;2023-04-07T06:15:54;35.53;;;13.85;;
62463;SDS011;48512;48.552;9.380;2023-04-07T06:18:21;31.80;;;13.27;;
62463;SDS011;48512;48.552;9.380;2023-04-07T06:20:47;27.83;;;12.05;;
62463;SDS011;48512;48.552;9.380;2023-04-07T06:23:14;29.30;;;12.18;;
62463;SDS011;48512;48.552;9.380;2023-04-07T06:25:40;36.67;;;13.27;;
62463;SDS011;48512;48.552;9.380;2023-04-07T06:28:06;31.35;;;13.80;;
62463;SDS011;48512;48.552;9.380;2023-04-07T06:30:33;33.13;;;13.93;;
62463;SDS011;48512;48.552;9.380;2023-04-07T06:32:59;29.88;;;12.35;;
62463;SDS011;48512;48.552;9.380;2023-04-07T06:35:25;31.88;;;12.55;;
62463;SDS011;48512;48.552;9.380;2023-04-07T06:37:52;31.42;;;13.75;;
62463;SDS011;48512;48.552;9.380;2023-04-07T06:40:18;36.75;;;13.88;;
62463;SDS011;48512;48.552;9.380;2023-04-07T06:42:44;31.38;;;13.05;;
62463;SDS011;48512;48.552;9.380;2023-04-07T06:45:19;30.17;;;13.23;;
62463;SDS011;48512;48.552;9.380;2023-04-07T06:47:45;33.00;;;13.60;;
62463;SDS011;48512;48.552;9.380;2023-04-07T06:50:11;31.70;;;13.85;;
62463;SDS011;48512;48.552;9.380;2023-04-07T06:52:37;33.05;;;14.35;;
62463;SDS011;48512;48.552;9.380;2023-04-07T06:55:03;38.13;;;17.00;;
62463;SDS011;48512;48.552;9.380;2023-04-07T06:57:30;46.45;;;20.70;;
62463;SDS011;48512;48.552;9.380;2023-04-07T06:59:56;48.65;;;22.88;;
62463;SDS011;48512;48.552;9.380;2023-04-07T07:02:22;47.30;;;21.25;;
62463;SDS011;48512;48.552;9.380;2023-04-07T07:04:48;44.00;;;19.90;;
62463;SDS011;48512;48.552;9.380;2023-04-07T07:07:15;48.95;;;23.92;;
62463;SDS011;48512;48.552;9.380;2023-04-07T07:09:41;52.55;;;24.38;;
62463;SDS011;48512;48.552;9.380;2023-04-07T07:12:07;40.00;;;20.23;;
62463;SDS011;48512;48.552;9.380;2023-04-07T07:14:33;42.55;;;18.88;;
62463;SDS011;48512;48.552;9.380;2023-04-07T07:16:59;42.03;;;18.45;;
62463;SDS011;48512;48.552;9.380;2023-04-07T07:19:25;42.33;;;19.45;;
62463;SDS011;48512;48.552;9.380;2023-04-07T07:21:51;46.80;;;19.35;;
62463;SDS011;48512;48.552;9.380;2023-04-07T07:24:18;42.00;;;16.70;;
62463;SDS011;48512;48.552;9.380;2023-04-07T07:26:44;41.00;;;16.50;;
62463;SDS011;48512;48.552;9.380;2023-04-07T07:29:10;28.42;;;10.88;;
62463;SDS011;48512;48.552;9.380;2023-04-07T07:31:37;40.55;;;16.88;;
62463;SDS011;48512;48.552;9.380;2023-04-07T07:34:03;43.17;;;18.17;;
62463;SDS011;48512;48.552;9.380;2023-04-07T07:36:29;47.00;;;17.58;;
62463;SDS011;48512;48.552;9.380;2023-04-07T07:38:57;46.85;;;20.02;;
62463;SDS011;48512;48.552;9.380;2023-04-07T07:41:23;49.22;;;19.35;;
62463;SDS011;48512;48.552;9.380;2023-04-07T07:43:49;47.92;;;21.30;;
62463;SDS011;48512;48.552;9.380;2023-04-07T07:46:15;44.78;;;21.23;;
62463;SDS011;48512;48.552;9.380;2023-04-07T07:48:41;43.97;;;20.58;;
62463;SDS011;48512;48.552;9.380;2023-04-07T07:51:07;40.22;;;18.98;;
62463;SDS011;48512;48.552;9.380;2023-04-07T07:53:33;38.67;;;17.52;;
62463;SDS011;48512;48.552;9.380;2023-04-07T07:55:59;39.60;;;17.48;;
62463;SDS011;48512;48.552;9.380;2023-04-07T07:58:26;39.00;;;17.20;;
62463;SDS011;48512;48.552;9.380;2023-04-07T08:00:52;33.03;;;14.32;;
62463;SDS011;48512;48.552;9.380;2023-04-07T08:03:18;29.00;;;13.50;;
62463;SDS011;48512;48.552;9.380;2023-04-07T08:05:47;26.13;;;12.25;;
62463;SDS011;48512;48.552;9.380;2023-04-07T08:08:13;24.73;;;12.20;;
62463;SDS011;48512;48.552;9.380;2023-04-07T08:10:40;21.10;;;11.48;;
62463;SDS011;48512;48.552;9.380;2023-04-07T08:13:06;18.52;;;9.95;;
62463;SDS011;48512;48.552;9.380;2023-04-07T08:15:32;14.48;;;6.80;;
62463;SDS011;48512;48.552;9.380;2023-04-07T08:17:58;14.60;;;5.95;;
62463;SDS011;48512;48.552;9.380;2023-04-07T08:20:25;17.63;;;7.18;;
62463;SDS011;48512;48.552;9.380;2023-04-07T08:22:52;14.57;;;8.20;;
62463;SDS011;48512;48.552;9.380;2023-04-07T08:25:18;15.05;;;8.13;;
62463;SDS011;48512;48.552;9.380;2023-04-07T08:27:45;14.65;;;8.45;;
62463;SDS011;48512;48.552;9.380;2023-04-07T08:30:11;13.32;;;7.68;;
62463;SDS011;48512;48.552;9.380;2023-04-07T08:32:41;16.42;;;8.32;;
62463;SDS011;48512;48.552;9.380;2023-04-07T08:35:08;15.63;;;8.65;;
62463;SDS011;48512;48.552;9.380;2023-04-07T08:37:36;18.60;;;9.63;;
62463;SDS011;48512;48.552;9.380;2023-04-07T08:40:03;15.38;;;8.80;;
62463;SDS011;48512;48.552;9.380;2023-04-07T08:42:32;14.88;;;8.90;;
62463;SDS011;48512;48.552;9.380;2023-04-07T08:45:05;13.02;;;7.93;;
62463;SDS011;48512;48.552;9.380;2023-04-07T08:47:33;13.80;;;8.45;;
62463;SDS011;48512;48.552;9.380;2023-04-07T08:50:02;14.70;;;8.02;;
62463;SDS011;48512;48.552;9.380;2023-04-07T08:52:34;12.48;;;7.35;;
62463;SDS011;48512;48.552;9.380;2023-04-07T08:55:09;10.90;;;6.38;;
62463;SDS011;48512;48.552;9.380;2023-04-07T08:57:36;15.00;;;7.93;;
62463;SDS011;48512;48.552;9.380;2023-04-07T09:00:03;9.50;;;6.85;;
62463;SDS011;48512;48.552;9.380;2023-04-07T09:02:33;10.18;;;5.80;;
62463;SDS011;48512;48.552;9.380;2023-04-07T09:05:01;9.85;;;6.28;;
62463;SDS011;48512;48.552;9.380;2023-04-07T09:07:32;10.10;;;6.03;;
62463;SDS011;48512;48.552;9.380;2023-04-07T09:09:59;10.48;;;6.45;;
62463;SDS011;48512;48.552;9.380;2023-04-07T09:12:29;7.93;;;5.28;;
62463;SDS011;48512;48.552;9.380;2023-04-07T09:14:56;9.55;;;6.50;;
62463;SDS011;48512;48.552;9.380;2023-04-07T09:17:27;10.05;;;6.43;;
62463;SDS011;48512;48.552;9.380;2023-04-07T09:19:58;13.45;;;6.03;;
62463;SDS011;48512;48.552;9.380;2023-04-07T09:22:35;10.25;;;6.03;;
62463;SDS011;48512;48.552;9.380;2023-04-07T09:25:08;11.13;;;6.35;;
62463;SDS011;48512;48.552;9.380;2023-04-07T09:27:55;10.65;;;5.80;;
62463;SDS011;48512;48.552;9.380;2023-04-07T09:30:29;10.55;;;5.90;;
62463;SDS011;48512;48.552;9.380;2023-04-07T09:32:58;9.07;;;6.47;;
62463;SDS011;48512;48.552;9.380;2023-04-07T09:35:26;10.98;;;4.80;;
62463;SDS011;48512;48.552;9.380;2023-04-07T09:40:28;8.25;;;5.40;;
62463;SDS011;48512;48.552;9.380;2023-04-07T09:42:55;9.00;;;5.47;;
62463;SDS011;48512;48.552;9.380;2023-04-07T09:45:24;9.93;;;5.75;;
62463;SDS011;48512;48.552;9.380;2023-04-07T09:47:53;6.65;;;5.00;;
62463;SDS011;48512;48.552;9.380;2023-04-07T09:53:03;6.38;;;4.40;;
62463;SDS011;48512;48.552;9.380;2023-04-07T09:55:30;9.35;;;4.88;;
62463;SDS011;48512;48.552;9.380;2023-04-07T09:57:56;7.68;;;5.20;;
62463;SDS011;48512;48.552;9.380;2023-04-07T10:00:25;10.23;;;4.53;;
62463;SDS011;48512;48.552;9.380;2023-04-07T10:02:52;13.00;;;4.25;;
62463;SDS011;48512;48.552;9.380;2023-04-07T10:05:20;7.70;;;4.07;;
62463;SDS011;48512;48.552;9.380;2023-04-07T10:07:47;8.80;;;4.20;;
62463;SDS011;48512;48.552;9.380;2023-04-07T10:10:14;6.82;;;3.63;;
62463;SDS011;48512;48.552;9.380;2023-04-07T10:12:40;5.32;;;3.13;;
62463;SDS011;48512;48.552;9.380;2023-04-07T10:15:07;5.93;;;3.50;;
62463;SDS011;48512;48.552;9.380;2023-04-07T10:17:34;6.70;;;3.20;;
62463;SDS011;48512;48.552;9.380;2023-04-07T10:20:01;6.00;;;3.38;;
62463;SDS011;48512;48.552;9.380;2023-04-07T10:22:29;6.95;;;3.15;;
62463;SDS011;48512;48.552;9.380;2023-04-07T10:24:58;5.65;;;3.20;;
62463;SDS011;48512;48.552;9.380;2023-04-07T10:27:38;8.95;;;2.70;;
62463;SDS011;48512;48.552;9.380;2023-04-07T10:30:16;2.55;;;2.20;;
62463;SDS011;48512;48.552;9.380;2023-04-07T10:32:49;6.20;;;2.72;;
62463;SDS011;48512;48.552;9.380;2023-04-07T10:35:16;3.92;;;2.08;;
62463;SDS011;48512;48.552;9.380;2023-04-07T10:40:41;3.92;;;2.22;;
62463;SDS011;48512;48.552;9.380;2023-04-07T10:43:08;4.10;;;1.90;;
62463;SDS011;48512;48.552;9.380;2023-04-07T10:48:15;4.55;;;1.92;;
62463;SDS011;48512;48.552;9.380;2023-04-07T10:50:45;4.18;;;2.00;;
62463;SDS011;48512;48.552;9.380;2023-04-07T10:53:33;4.22;;;2.58;;
62463;SDS011;48512;48.552;9.380;2023-04-07T10:56:03;3.45;;;2.17;;
62463;SDS011;48512;48.552;9.380;2023-04-07T10:58:30;3.00;;;2.30;;
62463;SDS011;48512;48.552;9.380;2023-04-07T11:03:34;3.92;;;2.17;;
62463;SDS011;48512;48.552;9.380;2023-04-07T11:08:36;4.90;;;2.40;;
62463;SDS011;48512;48.552;9.380;2023-04-07T11:11:08;4.70;;;2.60;;
62463;SDS011;48512;48.552;9.380;2023-04-07T11:13:42;3.85;;;2.55;;
62463;SDS011;48512;48.552;9.380;2023-04-07T11:16:09;4.20;;;2.50;;
62463;SDS011;48512;48.552;9.380;2023-04-07T11:18:36;6.05;;;3.10;;
62463;SDS011;48512;48.552;9.380;2023-04-07T11:21:03;7.75;;;2.85;;
62463;SDS011;48512;48.552;9.380;2023-04-07T11:23:37;7.80;;;3.20;;
62463;SDS011;48512;48.552;9.380;2023-04-07T11:26:04;5.25;;;2.70;;
62463;SDS011;48512;48.552;9.380;2023-04-07T11:28:31;5.53;;;3.67;;
62463;SDS011;48512;48.552;9.380;2023-04-07T11:30:57;4.05;;;2.40;;
62463;SDS011;48512;48.552;9.380;2023-04-07T11:33:28;4.93;;;2.92;;
62463;SDS011;48512;48.552;9.380;2023-04-07T11:35:59;6.53;;;4.32;;
62463;SDS011;48512;48.552;9.380;2023-04-07T11:38:28;8.43;;;4.28;;
62463;SDS011;48512;48.552;9.380;2023-04-07T11:41:08;4.20;;;3.40;;
62463;SDS011;48512;48.552;9.380;2023-04-07T11:43:36;6.63;;;3.88;;
62463;SDS011;48512;48.552;9.380;2023-04-07T11:46:20;8.75;;;5.43;;
62463;SDS011;48512;48.552;9.380;2023-04-07T11:48:47;8.23;;;4.72;;
62463;SDS011;48512;48.552;9.380;2023-04-07T11:51:20;4.05;;;2.20;;
62463;SDS011;48512;48.552;9.380;2023-04-07T11:53:54;4.53;;;2.78;;
62463;SDS011;48512;48.552;9.380;2023-04-07T11:56:21;3.70;;;2.60;;
62463;SDS011;48512;48.552;9.380;2023-04-07T11:58:48;7.72;;;3.63;;
62463;SDS011;48512;48.552;9.380;2023-04-07T12:01:18;4.70;;;2.70;;
62463;SDS011;48512;48.552;9.380;2023-04-07T12:06:27;5.53;;;2.40;;
62463;SDS011;48512;48.552;9.380;2023-04-07T12:08:55;4.20;;;2.50;;
62463;SDS011;48512;48.552;9.380;2023-04-07T12:11:21;3.88;;;2.58;;
62463;SDS011;48512;48.552;9.380;2023-04-07T12:13:48;5.18;;;3.75;;
62463;SDS011;48512;48.552;9.380;2023-04-07T12:16:14;5.80;;;2.50;;
62463;SDS011;48512;48.552;9.380;2023-04-07T12:18:40;7.47;;;3.80;;
62463;SDS011;48512;48.552;9.380;2023-04-07T12:21:06;5.50;;;3.90;;
62463;SDS011;48512;48.552;9.380;2023-04-07T12:23:32;7.32;;;4.57;;
62463;SDS011;48512;48.552;9.380;2023-04-07T12:25:58;6.80;;;4.47;;
62463;SDS011;48512;48.552;9.380;2023-04-07T12:28:25;8.02;;;4.78;;
62463;SDS011;48512;48.552;9.380;2023-04-07T12:30:52;6.05;;;4.18;;
62463;SDS011;48512;48.552;9.380;2023-04-07T12:33:19;4.07;;;2.85;;
62463;SDS011;48512;48.552;9.380;2023-04-07T12:35:45;3.67;;;2.22;;
62463;SDS011;48512;48.552;9.380;2023-04-07T12:38:11;2.95;;;1.73;;
62463;SDS011;48512;48.552;9.380;2023-04-07T12:40:38;2.40;;;1.73;;
62463;SDS011;48512;48.552;9.380;2023-04-07T12:43:04;2.00;;;1.80;;
62463;SDS011;48512;48.552;9.380;2023-04-07T12:45:31;2.78;;;1.90;;
62463;SDS011;48512;48.552;9.380;2023-04-07T12:47:58;3.20;;;1.90;;
62463;SDS011;48512;48.552;9.380;2023-04-07T12:50:24;3.45;;;1.80;;
62463;SDS011;48512;48.552;9.380;2023-04-07T12:52:51;3.92;;;2.30;;
62463;SDS011;48512;48.552;9.380;2023-04-07T12:55:18;6.75;;;3.20;;
62463;SDS011;48512;48.552;9.380;2023-04-07T12:57:44;6.65;;;3.50;;
62463;SDS011;48512;48.552;9.380;2023-04-07T13:00:10;4.97;;;3.53;;
62463;SDS011;48512;48.552;9.380;2023-04-07T13:02:39;7.05;;;3.28;;
62463;SDS011;48512;48.552;9.380;2023-04-07T13:05:06;4.32;;;2.58;;
62463;SDS011;48512;48.552;9.380;2023-04-07T13:07:33;4.28;;;2.83;;
62463;SDS011;48512;48.552;9.380;2023-04-07T13:10:01;5.85;;;3.15;;
62463;SDS011;48512;48.552;9.380;2023-04-07T13:12:27;5.28;;;3.63;;
62463;SDS011;48512;48.552;9.380;2023-04-07T13:14:53;6.32;;;3.78;;
62463;SDS011;48512;48.552;9.380;2023-04-07T13:17:20;5.95;;;3.35;;
62463;SDS011;48512;48.552;9.380;2023-04-07T13:19:46;6.22;;;2.97;;
62463;SDS011;48512;48.552;9.380;2023-04-07T13:22:12;5.88;;;3.20;;
62463;SDS011;48512;48.552;9.380;2023-04-07T13:24:38;7.40;;;3.40;;
62463;SDS011;48512;48.552;9.380;2023-04-07T13:27:05;9.15;;;5.60;;
62463;SDS011;48512;48.552;9.380;2023-04-07T13:29:31;8.75;;;4.90;;
62463;SDS011;48512;48.552;9.380;2023-04-07T13:32:04;8.52;;;4.30;;
62463;SDS011;48512;48.552;9.380;2023-04-07T13:34:32;15.63;;;8.80;;
62463;SDS011;48512;48.552;9.380;2023-04-07T13:37:02;9.73;;;5.53;;
62463;SDS011;48512;48.552;9.380;2023-04-07T13:39:29;6.78;;;4.57;;
62463;SDS011;48512;48.552;9.380;2023-04-07T13:41:56;2.97;;;2.67;;
62463;SDS011;48512;48.552;9.380;2023-04-07T13:44:23;4.22;;;2.67;;
62463;SDS011;48512;48.552;9.380;2023-04-07T13:46:49;3.92;;;2.83;;
62463;SDS011;48512;48.552;9.380;2023-04-07T13:49:16;3.40;;;3.00;;
62463;SDS011;48512;48.552;9.380;2023-04-07T13:51:42;3.15;;;2.72;;
62463;SDS011;48512;48.552;9.380;2023-04-07T13:54:08;6.68;;;2.70;;
62463;SDS011;48512;48.552;9.380;2023-04-07T13:56:34;8.70;;;2.90;;
62463;SDS011;48512;48.552;9.380;2023-04-07T13:59:04;5.78;;;3.60;;
62463;SDS011;48512;48.552;9.380;2023-04-07T14:01:31;3.83;;;2.38;;
62463;SDS011;48512;48.552;9.380;2023-04-07T14:03:58;5.20;;;2.90;;
62463;SDS011;48512;48.552;9.380;2023-04-07T14:06:24;6.15;;;3.60;;
62463;SDS011;48512;48.552;9.380;2023-04-07T14:08:51;5.32;;;3.58;;
62463;SDS011;48512;48.552;9.380;2023-04-07T14:11:18;5.82;;;3.17;;
62463;SDS011;48512;48.552;9.380;2023-04-07T14:13:44;10.35;;;5.40;;
62463;SDS011;48512;48.552;9.380;2023-04-07T14:16:11;9.13;;;6.30;;
62463;SDS011;48512;48.552;9.380;2023-04-07T14:18:37;7.00;;;4.78;;
62463;SDS011;48512;48.552;9.380;2023-04-07T14:21:03;8.35;;;6.18;;
62463;SDS011;48512;48.552;9.380;2023-04-07T14:23:30;6.15;;;4.68;;
62463;SDS011;48512;48.552;9.380;2023-04-07T14:25:57;6.35;;;4.10;;
62463;SDS011;48512;48.552;9.380;2023-04-07T14:28:24;18.67;;;9.57;;
62463;SDS011;48512;48.552;9.380;2023-04-07T14:30:52;7.10;;;4.60;;
62463;SDS011;48512;48.552;9.380;2023-04-07T14:33:19;7.13;;;4.75;;
62463;SDS011;48512;48.552;9.380;2023-04-07T14:35:47;6.07;;;4.22;;
62463;SDS011;48512;48.552;9.380;2023-04-07T14:38:13;7.28;;;4.70;;
62463;SDS011;48512;48.552;9.380;2023-04-07T14:40:40;4.82;;;4.13;;
62463;SDS011;48512;48.552;9.380;2023-04-07T14:43:06;5.43;;;3.80;;
62463;SDS011;48512;48.552;9.380;2023-04-07T14:45:33;7.20;;;4.10;;
62463;SDS011;48512;48.552;9.380;2023-04-07T14:48:00;7.65;;;4.70;;
62463;SDS011;48512;48.552;9.380;2023-04-07T14:50:27;6.88;;;5.05;;
62463;SDS011;48512;48.552;9.380;2023-04-07T14:52:53;9.95;;;4.97;;
62463;SDS011;48512;48.552;9.380;2023-04-07T14:55:19;5.82;;;3.60;;
62463;SDS011;48512;48.552;9.380;2023-04-07T14:57:45;5.38;;;3.60;;
62463;SDS011;48512;48.552;9.380;2023-04-07T15:00:11;5.63;;;3.45;;
62463;SDS011;48512;48.552;9.380;2023-04-07T15:02:38;4.68;;;3.55;;
62463;SDS011;48512;48.552;9.380;2023-04-07T15:05:04;6.60;;;4.07;;
62463;SDS011;48512;48.552;9.380;2023-04-07T15:07:31;12.40;;;5.05;;